createdAt,value
2023-02-17T00:01:55.152Z,24.07
2023-02-17T00:04:24.868Z,24.12
2023-02-17T00:06:55.729Z,24.11
2023-02-17T00:09:26.546Z,24.11
2023-02-17T00:11:57.362Z,24.14
2023-02-17T00:14:27.202Z,24.15
2023-02-17T00:16:57.744Z,24.14
2023-02-17T00:19:28.299Z,24.14
2023-02-17T00:22:01.360Z,24.12
2023-02-17T00:24:34.060Z,24.11
2023-02-17T00:27:05.864Z,24.09
2023-02-17T00:29:36.278Z,24.11
2023-02-17T00:32:11.440Z,24.05
2023-02-17T00:34:43.764Z,24.08
2023-02-17T00:37:13.889Z,24.07
2023-02-17T00:39:43.740Z,24.25
2023-02-17T00:42:14.095Z,24.42
2023-02-17T00:44:44.302Z,24.45
2023-02-17T00:47:18.118Z,24.36
2023-02-17T00:49:50.093Z,24.29
2023-02-17T00:52:21.302Z,24.28
2023-02-17T00:54:52.379Z,24.28
2023-02-17T00:57:23.455Z,24.26
2023-02-17T00:59:54.550Z,24.38
2023-02-17T01:02:25.534Z,24.46
2023-02-17T01:04:56.326Z,24.62
2023-02-17T01:07:27.544Z,24.69
2023-02-17T01:09:58.652Z,24.69
2023-02-17T01:12:28.411Z,24.56
2023-02-17T01:15:00.721Z,24.51
2023-02-17T01:17:32.533Z,24.53
2023-02-17T01:20:03.106Z,24.56
2023-02-17T01:22:33.498Z,24.51
2023-02-17T01:25:04.724Z,24.51
2023-02-17T01:27:37.664Z,24.46
2023-02-17T01:30:08.509Z,24.42
2023-02-17T01:32:39.255Z,24.46
2023-02-17T01:35:13.336Z,24.53
2023-02-17T01:37:45.932Z,24.43
2023-02-17T01:40:19.771Z,24.46
2023-02-17T01:42:53.036Z,24.55
2023-02-17T01:45:24.438Z,24.53
2023-02-17T01:48:13.653Z,24.51
2023-02-17T01:51:09.235Z,24.46
2023-02-17T01:53:45.447Z,24.33
2023-02-17T01:56:18.497Z,24.28
2023-02-17T01:58:54.495Z,24.25
2023-02-17T02:01:25.514Z,24.18
2023-02-17T02:03:57.159Z,24.15
2023-02-17T02:06:30.026Z,24.12
2023-02-17T02:09:08.625Z,24.14
2023-02-17T02:11:39.401Z,24.09
2023-02-17T02:14:14.159Z,24.07
2023-02-17T02:17:07.274Z,24.04
2023-02-17T02:20:16.634Z,24.04
2023-02-17T02:23:17.732Z,24.00
2023-02-17T02:26:18.476Z,24.02
2023-02-17T02:29:40.627Z,24.07
2023-02-17T02:32:30.586Z,24.11
2023-02-17T02:35:18.880Z,24.14
2023-02-17T02:38:14.182Z,23.98
2023-02-17T02:40:55.199Z,23.93
2023-02-17T02:43:27.886Z,23.88
2023-02-17T02:45:58.949Z,23.80
2023-02-17T02:48:30.289Z,23.68
2023-02-17T02:51:16.174Z,23.59
2023-02-17T02:54:21.963Z,23.47
2023-02-17T02:57:04.233Z,23.36
2023-02-17T02:59:54.020Z,23.22
2023-02-17T03:02:35.974Z,23.20
2023-02-17T03:05:06.354Z,23.16
2023-02-17T03:07:43.084Z,23.09
2023-02-17T03:10:15.501Z,23.01
2023-02-17T03:12:46.121Z,23.01
2023-02-17T03:15:32.327Z,22.94
2023-02-17T03:18:07.207Z,22.89
2023-02-17T03:20:45.051Z,22.82
2023-02-17T03:23:15.449Z,22.75
2023-02-17T03:25:46.432Z,22.71
2023-02-17T03:28:17.121Z,22.71
2023-02-17T03:30:48.770Z,22.65
2023-02-17T03:33:19.527Z,22.62
2023-02-17T03:35:50.239Z,22.60
2023-02-17T03:38:21.355Z,22.54
2023-02-17T03:40:51.758Z,22.54
2023-02-17T03:43:21.947Z,22.55
2023-02-17T03:45:52.885Z,22.50
2023-02-17T03:48:23.235Z,22.45
2023-02-17T03:50:53.203Z,22.44
2023-02-17T03:53:24.263Z,22.44
2023-02-17T03:55:54.379Z,22.95
2023-02-17T03:58:24.330Z,23.30
2023-02-17T04:00:54.995Z,23.49
2023-02-17T04:03:33.014Z,23.70
2023-02-17T04:06:04.629Z,23.82
2023-02-17T04:08:34.912Z,23.80
2023-02-17T04:11:07.023Z,23.73
2023-02-17T04:13:38.372Z,23.74
2023-02-17T04:16:10.908Z,23.66
2023-02-17T04:18:41.574Z,23.57
2023-02-17T04:21:11.444Z,23.54
2023-02-17T04:23:42.364Z,23.50
2023-02-17T04:26:13.123Z,23.45
2023-02-17T04:28:44.580Z,23.39
2023-02-17T04:31:15.115Z,23.40
2023-02-17T04:33:46.046Z,23.39
2023-02-17T04:36:16.908Z,23.37
2023-02-17T04:38:46.986Z,23.33
2023-02-17T04:41:17.500Z,23.29
2023-02-17T04:43:47.856Z,23.29
2023-02-17T04:46:19.514Z,23.29
2023-02-17T04:48:50.127Z,23.24
2023-02-17T04:51:19.897Z,23.19
2023-02-17T04:54:24.390Z,23.29
2023-02-17T04:56:55.816Z,23.31
2023-02-17T04:59:26.743Z,23.30
2023-02-17T05:01:56.861Z,23.27
2023-02-17T05:04:27.776Z,23.22
2023-02-17T05:06:58.188Z,23.27
2023-02-17T05:09:29.525Z,23.27
2023-02-17T05:12:08.668Z,23.16
2023-02-17T05:14:40.113Z,23.10
2023-02-17T05:17:10.520Z,23.08
2023-02-17T05:19:40.653Z,23.01
2023-02-17T05:22:11.309Z,22.99
2023-02-17T05:24:41.023Z,22.94
2023-02-17T05:27:12.286Z,22.91
2023-02-17T05:29:43.526Z,22.87
2023-02-17T05:32:14.875Z,22.84
2023-02-17T05:34:45.498Z,22.75
2023-02-17T05:37:15.419Z,22.75
2023-02-17T05:39:46.142Z,22.78
2023-02-17T05:42:17.050Z,22.75
2023-02-17T05:44:47.644Z,22.71
2023-02-17T05:47:17.604Z,22.69
2023-02-17T05:49:48.518Z,22.68
2023-02-17T05:52:19.416Z,22.61
2023-02-17T05:54:49.571Z,22.60
2023-02-17T05:57:19.311Z,22.57
2023-02-17T05:59:49.408Z,22.58
2023-02-17T06:02:20.308Z,22.58
2023-02-17T06:04:52.279Z,22.55
2023-02-17T06:07:22.250Z,22.50
2023-02-17T06:09:52.011Z,22.51
2023-02-17T06:12:22.327Z,22.54
2023-02-17T06:14:53.023Z,22.47
2023-02-17T06:17:24.139Z,22.47
2023-02-17T06:19:55.864Z,22.45
2023-02-17T06:22:26.062Z,22.40
2023-02-17T06:24:56.443Z,22.36
2023-02-17T06:27:27.946Z,22.36
2023-02-17T06:29:58.610Z,22.31
2023-02-17T06:32:28.670Z,22.33
2023-02-17T06:34:58.952Z,22.29
2023-02-17T06:37:29.535Z,22.24
2023-02-17T06:40:00.952Z,22.24
2023-02-17T06:42:30.833Z,22.21
2023-02-17T06:45:07.068Z,22.20
2023-02-17T06:47:38.117Z,22.23
2023-02-17T06:50:09.376Z,22.20
2023-02-17T06:52:39.615Z,22.23
2023-02-17T06:55:10.474Z,22.20
2023-02-17T06:57:42.407Z,22.18
2023-02-17T07:00:12.782Z,22.21
2023-02-17T07:02:43.280Z,22.24
2023-02-17T07:05:14.041Z,22.21
2023-02-17T07:07:47.336Z,22.20
2023-02-17T07:10:18.495Z,22.20
2023-02-17T07:12:49.031Z,22.17
2023-02-17T07:15:19.420Z,22.17
2023-02-17T07:17:49.435Z,22.20
2023-02-17T07:20:21.498Z,22.21
2023-02-17T07:22:51.785Z,22.24
2023-02-17T07:25:21.533Z,22.25
2023-02-17T07:27:52.194Z,22.27
2023-02-17T07:30:23.556Z,22.25
2023-02-17T07:32:54.282Z,22.25
2023-02-17T07:35:24.688Z,22.31
2023-02-17T07:37:54.381Z,22.31
2023-02-17T07:40:24.695Z,22.30
2023-02-17T07:42:55.983Z,22.30
2023-02-17T07:45:27.068Z,22.33
2023-02-17T07:47:56.781Z,22.31
2023-02-17T07:50:26.721Z,22.30
2023-02-17T07:52:57.122Z,22.34
2023-02-17T07:55:27.296Z,22.34
2023-02-17T07:57:57.286Z,22.37
2023-02-17T08:00:27.509Z,22.37
2023-02-17T08:02:57.237Z,22.37
2023-02-17T08:05:27.587Z,22.40
2023-02-17T08:08:27.115Z,22.40
2023-02-17T08:11:21.136Z,22.43
2023-02-17T08:13:51.136Z,22.40
2023-02-17T08:16:21.812Z,22.45
2023-02-17T08:18:53.381Z,22.43
2023-02-17T08:21:28.011Z,22.41
2023-02-17T08:23:59.126Z,22.44
2023-02-17T08:26:29.515Z,22.40
2023-02-17T08:28:59.469Z,22.40
2023-02-17T08:31:33.900Z,22.33
2023-02-17T08:34:09.327Z,22.24
2023-02-17T08:36:40.094Z,22.12
2023-02-17T08:39:14.266Z,21.99
2023-02-17T08:41:45.743Z,21.89
2023-02-17T08:44:19.833Z,21.81
2023-02-17T08:46:51.632Z,21.67
2023-02-17T08:49:28.686Z,21.56
2023-02-17T08:52:00.128Z,21.39
2023-02-17T08:54:30.817Z,21.35
2023-02-17T08:57:01.481Z,21.31
2023-02-17T08:59:32.667Z,21.21
2023-02-17T09:02:02.862Z,21.11
2023-02-17T09:04:33.743Z,20.97
2023-02-17T09:07:03.622Z,20.87
2023-02-17T09:09:35.048Z,20.74
2023-02-17T09:12:07.193Z,20.73
2023-02-17T09:14:37.926Z,20.72
2023-02-17T09:17:08.331Z,20.70
2023-02-17T09:19:42.114Z,20.67
2023-02-17T09:22:30.602Z,20.63
2023-02-17T09:25:03.007Z,20.63
2023-02-17T09:27:33.339Z,20.59
2023-02-17T09:30:03.496Z,20.47
2023-02-17T09:32:33.807Z,20.50
2023-02-17T09:35:08.110Z,20.53
2023-02-17T09:37:38.546Z,20.55
2023-02-17T09:40:10.536Z,20.47
2023-02-17T09:42:44.470Z,20.47
2023-02-17T09:45:22.746Z,20.45
2023-02-17T09:47:56.748Z,20.42
2023-02-17T09:50:39.651Z,20.49
2023-02-17T09:53:16.704Z,20.40
2023-02-17T09:55:52.992Z,20.45
2023-02-17T09:58:26.541Z,20.42
2023-02-17T10:01:00.255Z,20.43
2023-02-17T10:03:34.333Z,20.32
2023-02-17T10:06:20.082Z,20.43
2023-02-17T10:09:13.872Z,20.39
2023-02-17T10:12:15.144Z,20.47
2023-02-17T10:14:57.528Z,20.39
2023-02-17T10:17:53.621Z,20.38
2023-02-17T10:20:37.881Z,20.49
2023-02-17T10:23:31.626Z,20.49
2023-02-17T10:26:08.969Z,20.39
2023-02-17T10:28:53.384Z,20.36
2023-02-17T10:31:50.115Z,20.26
2023-02-17T10:34:43.864Z,20.32
2023-02-17T10:37:24.450Z,20.30
2023-02-17T10:40:02.943Z,20.38
2023-02-17T10:42:39.409Z,20.38
2023-02-17T10:45:18.645Z,20.43
2023-02-17T10:47:49.781Z,20.32
2023-02-17T10:50:25.969Z,20.40
2023-02-17T10:52:57.849Z,20.42
2023-02-17T10:55:42.198Z,20.49
2023-02-17T10:58:43.935Z,20.47
2023-02-17T11:01:14.874Z,20.52
2023-02-17T11:03:45.448Z,20.45
2023-02-17T11:06:23.718Z,20.46
2023-02-17T11:09:03.899Z,20.50
2023-02-17T11:11:38.057Z,20.55
2023-02-17T11:14:08.553Z,20.56
2023-02-17T11:16:43.510Z,20.56
2023-02-17T11:19:35.615Z,20.55
2023-02-17T11:22:24.254Z,20.57
2023-02-17T11:25:02.807Z,20.59
2023-02-17T11:27:33.110Z,20.56
2023-02-17T11:30:16.916Z,20.59
2023-02-17T11:32:47.900Z,20.60
2023-02-17T11:35:39.290Z,20.49
2023-02-17T11:38:18.513Z,20.46
2023-02-17T11:40:58.635Z,20.39
2023-02-17T11:43:31.976Z,20.46
2023-02-17T11:46:08.280Z,20.63
2023-02-17T11:49:08.647Z,20.56
2023-02-17T11:52:14.802Z,20.55
2023-02-17T11:55:22.066Z,20.53
2023-02-17T11:58:40.116Z,20.57
2023-02-17T12:01:31.342Z,20.67
2023-02-17T12:04:27.765Z,20.88
2023-02-17T12:06:58.962Z,21.03
2023-02-17T12:09:39.895Z,21.03
2023-02-17T12:12:13.092Z,21.05
2023-02-17T12:15:29.387Z,21.10
2023-02-17T12:18:14.829Z,21.25
2023-02-17T12:21:29.634Z,21.37
2023-02-17T12:24:12.168Z,21.41
2023-02-17T12:26:50.068Z,21.39
2023-02-17T12:29:37.016Z,21.38
2023-02-17T12:32:49.694Z,21.49
2023-02-17T12:35:54.649Z,21.42
2023-02-17T12:38:38.861Z,21.34
2023-02-17T12:41:19.345Z,21.23
2023-02-17T12:43:59.972Z,21.27
2023-02-17T12:46:51.931Z,21.32
2023-02-17T12:49:47.836Z,21.61
2023-02-17T12:52:36.262Z,21.90
2023-02-17T12:55:21.043Z,22.45
2023-02-17T12:57:57.066Z,22.62
2023-02-17T13:00:35.497Z,22.57
2023-02-17T13:03:06.889Z,22.23
2023-02-17T13:06:06.830Z,22.37
2023-02-17T13:08:44.027Z,22.61
2023-02-17T13:11:27.024Z,22.58
2023-02-17T13:14:01.399Z,22.50
2023-02-17T13:16:43.484Z,22.43
2023-02-17T13:19:17.033Z,22.37
2023-02-17T13:21:57.189Z,22.14
2023-02-17T13:24:36.605Z,22.18
2023-02-17T13:27:35.449Z,22.43
2023-02-17T13:30:26.044Z,22.54
2023-02-17T13:33:31.037Z,22.58
2023-02-17T13:36:01.434Z,22.62
2023-02-17T13:39:05.173Z,22.60
2023-02-17T13:41:46.944Z,22.52
2023-02-17T13:44:22.169Z,22.58
2023-02-17T13:46:53.953Z,22.45
2023-02-17T13:49:29.481Z,22.40
2023-02-17T13:52:13.609Z,22.55
2023-02-17T13:55:03.403Z,22.92
2023-02-17T13:57:38.982Z,22.85
2023-02-17T14:00:22.543Z,22.87
2023-02-17T14:03:07.195Z,23.08
2023-02-17T14:05:39.877Z,23.27
2023-02-17T14:08:21.998Z,23.24
2023-02-17T14:10:52.143Z,23.49
2023-02-17T14:13:55.522Z,24.02
2023-02-17T14:16:33.818Z,23.81
2023-02-17T14:19:14.438Z,23.71
2023-02-17T14:21:58.415Z,24.00
2023-02-17T14:24:38.696Z,23.88
2023-02-17T14:27:15.654Z,23.88
2023-02-17T14:29:48.622Z,24.25
2023-02-17T14:32:32.559Z,24.11
2023-02-17T14:35:15.799Z,23.87
2023-02-17T14:37:47.731Z,24.08
2023-02-17T14:40:30.339Z,24.04
2023-02-17T14:43:00.772Z,24.08
2023-02-17T14:45:30.990Z,24.07
2023-02-17T14:48:01.823Z,24.14
2023-02-17T14:50:34.368Z,24.48
2023-02-17T14:53:04.989Z,24.88
2023-02-17T14:55:43.379Z,25.42
2023-02-17T14:58:20.997Z,25.59
2023-02-17T15:00:52.728Z,25.62
2023-02-17T15:03:23.367Z,25.73
2023-02-17T15:05:53.495Z,25.57
2023-02-17T15:08:37.475Z,25.33
2023-02-17T15:11:10.617Z,25.39
2023-02-17T15:13:40.756Z,25.25
2023-02-17T15:16:10.968Z,25.28
2023-02-17T15:18:42.790Z,25.02
2023-02-17T15:21:34.904Z,24.79
2023-02-17T15:24:13.687Z,24.84
2023-02-17T15:26:43.720Z,24.69
2023-02-17T15:29:22.937Z,24.56
2023-02-17T15:31:55.730Z,24.51
2023-02-17T15:34:32.154Z,24.94
2023-02-17T15:37:04.395Z,25.38
2023-02-17T15:39:36.429Z,25.48
2023-02-17T15:42:13.882Z,25.55
2023-02-17T15:44:48.782Z,25.66
2023-02-17T15:47:23.442Z,25.57
2023-02-17T15:49:53.835Z,25.39
2023-02-17T15:52:24.031Z,25.03
2023-02-17T15:54:55.299Z,24.94
2023-02-17T15:57:26.577Z,24.97
2023-02-17T15:59:58.220Z,25.38
2023-02-17T16:02:28.347Z,25.68
2023-02-17T16:04:58.088Z,25.55
2023-02-17T16:07:28.429Z,25.38
2023-02-17T16:09:58.743Z,25.45
2023-02-17T16:12:31.832Z,25.15
2023-02-17T16:15:01.975Z,25.14
2023-02-17T16:17:32.088Z,24.98
2023-02-17T16:20:02.715Z,25.28
2023-02-17T16:22:33.131Z,25.65
2023-02-17T16:25:03.556Z,25.68
2023-02-17T16:27:53.768Z,25.58
2023-02-17T16:30:37.320Z,25.57
2023-02-17T16:33:09.683Z,25.49
2023-02-17T16:35:40.409Z,25.38
2023-02-17T16:38:16.095Z,25.51
2023-02-17T16:40:49.967Z,25.73
2023-02-17T16:43:32.188Z,25.49
2023-02-17T16:46:04.795Z,25.41
2023-02-17T16:48:37.763Z,25.04
2023-02-17T16:51:09.188Z,25.11
2023-02-17T16:53:39.903Z,25.27
2023-02-17T16:56:28.516Z,25.65
2023-02-17T16:58:58.652Z,25.51
2023-02-17T17:01:29.133Z,25.37
2023-02-17T17:04:00.520Z,25.27
2023-02-17T17:06:31.548Z,25.37
2023-02-17T17:09:01.769Z,25.51
2023-02-17T17:11:33.668Z,25.85
2023-02-17T17:14:05.277Z,26.10
2023-02-17T17:16:36.615Z,26.29
2023-02-17T17:19:07.341Z,26.10
2023-02-17T17:21:38.172Z,26.19
2023-02-17T17:24:11.314Z,26.03
2023-02-17T17:26:48.353Z,25.68
2023-02-17T17:29:19.943Z,25.51
2023-02-17T17:31:50.695Z,25.59
2023-02-17T17:34:20.992Z,25.94
2023-02-17T17:36:51.301Z,25.68
2023-02-17T17:39:23.842Z,25.52
2023-02-17T17:41:54.743Z,25.54
2023-02-17T17:44:24.780Z,25.48
2023-02-17T17:46:54.919Z,25.03
2023-02-17T17:49:24.687Z,24.72
2023-02-17T17:51:55.140Z,24.59
2023-02-17T17:54:25.347Z,24.79
2023-02-17T17:56:57.306Z,25.23
2023-02-17T17:59:27.469Z,26.37
2023-02-17T18:01:57.897Z,26.40
2023-02-17T18:04:28.869Z,26.30
2023-02-17T18:07:00.400Z,25.72
2023-02-17T18:09:35.164Z,25.18
2023-02-17T18:12:13.290Z,24.84
2023-02-17T18:14:46.764Z,24.86
2023-02-17T18:17:19.686Z,24.79
2023-02-17T18:19:55.594Z,24.65
2023-02-17T18:22:26.174Z,24.60
2023-02-17T18:24:56.711Z,24.57
2023-02-17T18:27:27.046Z,24.43
2023-02-17T18:29:58.025Z,24.40
2023-02-17T18:32:28.478Z,24.43
2023-02-17T18:34:59.700Z,24.56
2023-02-17T18:37:31.597Z,25.34
2023-02-17T18:40:05.536Z,25.28
2023-02-17T18:42:35.773Z,25.89
2023-02-17T18:45:06.792Z,26.26
2023-02-17T18:47:37.944Z,26.45
2023-02-17T18:50:11.304Z,27.09
2023-02-17T18:52:43.696Z,27.22
2023-02-17T18:55:13.950Z,26.71
2023-02-17T18:57:45.924Z,26.65
2023-02-17T19:00:18.768Z,26.43
2023-02-17T19:02:48.896Z,25.81
2023-02-17T19:05:18.741Z,24.94
2023-02-17T19:07:49.810Z,24.86
2023-02-17T19:10:20.338Z,25.06
2023-02-17T19:13:10.980Z,24.62
2023-02-17T19:15:41.137Z,24.46
2023-02-17T19:18:12.249Z,23.94
2023-02-17T19:20:45.426Z,23.67
2023-02-17T19:23:16.191Z,23.91
2023-02-17T19:25:46.936Z,23.75
2023-02-17T19:28:18.587Z,23.50
2023-02-17T19:30:49.273Z,23.23
2023-02-17T19:33:19.631Z,22.95
2023-02-17T19:35:50.962Z,22.88
2023-02-17T19:38:21.960Z,23.05
2023-02-17T19:40:54.938Z,22.99
2023-02-17T19:43:24.852Z,23.05
2023-02-17T19:45:54.929Z,22.96
2023-02-17T19:48:26.952Z,22.78
2023-02-17T19:51:08.520Z,22.73
2023-02-17T19:53:39.116Z,22.60
2023-02-17T19:56:14.830Z,22.78
2023-02-17T19:58:46.721Z,22.85
2023-02-17T20:01:22.594Z,22.75
2023-02-17T20:03:54.745Z,22.67
2023-02-17T20:06:29.015Z,22.51
2023-02-17T20:09:06.050Z,22.41
2023-02-17T20:11:37.264Z,22.48
2023-02-17T20:14:08.245Z,22.48
2023-02-17T20:16:39.183Z,22.41
2023-02-17T20:19:11.432Z,22.36
2023-02-17T20:21:45.922Z,22.33
2023-02-17T20:24:16.814Z,22.27
2023-02-17T20:26:52.333Z,22.29
2023-02-17T20:29:22.895Z,22.24
2023-02-17T20:31:53.583Z,22.14
2023-02-17T20:34:33.154Z,22.04
2023-02-17T20:37:05.115Z,21.89
2023-02-17T20:39:39.267Z,21.88
2023-02-17T20:42:11.159Z,21.88
2023-02-17T20:44:41.647Z,21.86
2023-02-17T20:47:13.395Z,21.94
2023-02-17T20:49:43.866Z,22.06
2023-02-17T20:52:15.121Z,22.24
2023-02-17T20:54:47.856Z,22.29
2023-02-17T20:57:18.164Z,22.10
2023-02-17T20:59:49.531Z,21.93
2023-02-17T21:02:21.740Z,21.81
2023-02-17T21:04:51.862Z,21.76
2023-02-17T21:07:21.600Z,21.71
2023-02-17T21:09:51.880Z,21.62
2023-02-17T21:12:24.314Z,21.63
2023-02-17T21:14:54.880Z,21.59
2023-02-17T21:17:26.206Z,21.48
2023-02-17T21:19:56.780Z,21.48
2023-02-17T21:22:27.361Z,21.49
2023-02-17T21:24:59.765Z,21.44
2023-02-17T21:27:29.902Z,21.38
2023-02-17T21:29:59.883Z,21.24
2023-02-17T21:32:31.347Z,21.12
2023-02-17T21:35:02.014Z,21.07
2023-02-17T21:37:35.750Z,20.96
2023-02-17T21:40:07.270Z,20.94
2023-02-17T21:42:58.361Z,20.88
2023-02-17T21:45:29.198Z,20.79
2023-02-17T21:47:59.890Z,20.70
2023-02-17T21:50:29.995Z,20.55
2023-02-17T21:53:00.280Z,20.57
2023-02-17T21:55:30.380Z,20.50
2023-02-17T21:58:01.313Z,20.40
2023-02-17T22:00:31.474Z,20.35
2023-02-17T22:03:01.228Z,20.29
2023-02-17T22:05:33.360Z,20.26
2023-02-17T22:08:03.866Z,20.21
2023-02-17T22:10:41.423Z,20.21
2023-02-17T22:13:11.928Z,20.24
2023-02-17T22:15:42.792Z,20.15
2023-02-17T22:18:14.167Z,20.08
2023-02-17T22:20:45.470Z,19.99
2023-02-17T22:23:15.630Z,20.01
2023-02-17T22:25:45.339Z,19.97
2023-02-17T22:28:16.311Z,19.78
2023-02-17T22:30:54.927Z,19.79
2023-02-17T22:33:25.263Z,19.74
2023-02-17T22:36:07.101Z,19.67
2023-02-17T22:38:38.930Z,19.64
2023-02-17T22:41:14.140Z,19.54
2023-02-17T22:43:48.110Z,19.57
2023-02-17T22:46:19.750Z,19.57
2023-02-17T22:48:53.459Z,19.60
2023-02-17T22:51:30.083Z,19.58
2023-02-17T22:54:03.335Z,19.54
2023-02-17T22:56:34.589Z,19.49
2023-02-17T22:59:06.627Z,19.47
2023-02-17T23:01:38.157Z,19.34
2023-02-17T23:04:08.915Z,19.24
2023-02-17T23:06:39.510Z,19.33
2023-02-17T23:09:17.635Z,19.30
2023-02-17T23:11:55.969Z,19.23
2023-02-17T23:14:33.496Z,19.18
2023-02-17T23:17:10.556Z,19.09
2023-02-17T23:19:43.553Z,19.03
2023-02-17T23:22:17.774Z,18.98
2023-02-17T23:24:50.230Z,18.94
2023-02-17T23:27:20.826Z,18.85
2023-02-17T23:29:51.003Z,18.85
2023-02-17T23:32:21.628Z,18.76
2023-02-17T23:34:52.287Z,18.84
2023-02-17T23:37:23.691Z,18.82
2023-02-17T23:39:53.664Z,18.78
2023-02-17T23:42:23.623Z,18.75
2023-02-17T23:44:55.175Z,18.55
2023-02-17T23:47:25.651Z,18.47
2023-02-17T23:49:57.936Z,18.44
2023-02-17T23:52:29.565Z,18.47
2023-02-17T23:55:00.641Z,18.57
2023-02-17T23:57:30.851Z,18.64
